createdAt,value
2022-07-30T00:00:00.000Z,82.47
2022-07-30T00:15:00.000Z,82.69
2022-07-30T00:30:00.000Z,82.75
2022-07-30T00:45:00.000Z,83.12
2022-07-30T01:00:00.000Z,83.35
2022-07-30T01:15:00.000Z,83.29
2022-07-30T01:30:00.000Z,83.45
2022-07-30T01:45:00.000Z,82.91
2022-07-30T02:00:00.000Z,82.75
2022-07-30T02:15:00.000Z,82.32
2022-07-30T02:30:00.000Z,82.4
2022-07-30T02:45:00.000Z,82.22
2022-07-30T03:00:00.000Z,82.02
2022-07-30T03:15:00.000Z,82.33
2022-07-30T03:30:00.000Z,82.6
2022-07-30T03:45:00.000Z,82.7
2022-07-30T04:00:00.000Z,82.42
2022-07-30T04:30:00.000Z,83.08
2022-07-30T04:30:00.000Z,83.01
2022-07-30T04:45:00.000Z,83.17
2022-07-30T05:00:00.000Z,82.91
2022-07-30T05:15:00.000Z,81.68
2022-07-30T05:30:00.000Z,81.12
2022-07-30T05:45:00.000Z,80.96
2022-07-30T06:00:00.000Z,81.21
2022-07-30T06:15:00.000Z,81.14
2022-07-30T06:30:00.000Z,80.91
2022-07-30T06:45:00.000Z,80.12
2022-07-30T07:00:00.000Z,79.52
2022-07-30T07:15:00.000Z,79.42
2022-07-30T07:30:00.000Z,80.28
2022-07-30T07:45:00.000Z,81.53
2022-07-30T08:00:00.000Z,81.22
2022-07-30T08:15:00.000Z,79.37
2022-07-30T08:30:00.000Z,77.89
2022-07-30T08:45:00.000Z,75.58
2022-07-30T09:00:00.000Z,73.14
2022-07-30T09:15:00.000Z,72.31
2022-07-30T09:30:00.000Z,75.52
2022-07-30T09:45:00.000Z,74.68
2022-07-30T10:00:00.000Z,75.4
2022-07-30T10:30:00.000Z,63.07
2022-07-30T10:30:00.000Z,60.47
2022-07-30T10:45:00.000Z,56.41
2022-07-30T11:00:00.000Z,50.38
2022-07-30T11:15:00.000Z,49.99
2022-07-30T11:30:00.000Z,52.33
2022-07-30T11:45:00.000Z,54.1
2022-07-30T12:00:00.000Z,51.63
2022-07-30T12:15:00.000Z,48.73
2022-07-30T12:30:00.000Z,48.58
2022-07-30T12:45:00.000Z,48.72
2022-07-30T13:00:00.000Z,48.6
2022-07-30T13:15:00.000Z,45.81
2022-07-30T13:30:00.000Z,43.41
2022-07-30T13:45:00.000Z,44.73
2022-07-30T14:00:00.000Z,46.69
2022-07-30T14:15:00.000Z,50.36
2022-07-30T14:30:00.000Z,48.01
2022-07-30T14:45:00.000Z,47.4
2022-07-30T15:00:00.000Z,47.78
2022-07-30T15:15:00.000Z,53.87
2022-07-30T15:30:00.000Z,60.98
2022-07-30T15:45:00.000Z,64.19
2022-07-30T16:00:00.000Z,59.71
2022-07-30T16:15:00.000Z,51.26
2022-07-30T16:30:00.000Z,49.47
2022-07-30T16:45:00.000Z,46.54
2022-07-30T17:00:00.000Z,45.8
2022-07-30T17:15:00.000Z,45.77
2022-07-30T17:30:00.000Z,48.39
2022-07-30T17:45:00.000Z,50.23
2022-07-30T18:00:00.000Z,51.18
2022-07-30T18:15:00.000Z,52.75
2022-07-30T18:30:00.000Z,52.91
2022-07-30T18:45:00.000Z,53.31
2022-07-30T19:00:00.000Z,55.48
2022-07-30T19:15:00.000Z,59.7
2022-07-30T19:30:00.000Z,57.68
2022-07-30T19:45:00.000Z,59.3
2022-07-30T20:00:00.000Z,59.85
2022-07-30T20:15:00.000Z,60.1
2022-07-30T20:30:00.000Z,61.76
2022-07-30T20:45:00.000Z,62.43
2022-07-30T21:00:00.000Z,61.66
2022-07-30T21:15:00.000Z,61.41
2022-07-30T21:30:00.000Z,65.65
2022-07-30T21:45:00.000Z,65.64
2022-07-30T22:00:00.000Z,63.39
2022-07-30T22:15:00.000Z,66.13
2022-07-30T22:30:00.000Z,71.3
2022-07-30T22:45:00.000Z,66.74
2022-07-30T23:00:00.000Z,65.03
2022-07-30T23:15:00.000Z,67.74
2022-07-30T23:45:00.000Z,62.22
2022-07-30T23:45:00.000Z,62.92
